logo dgac
Viernes 01 de Julio del 2022
Buscar por aerodromo o helipuerto
Ingrese nombre de aeródromo, localidad o designador OACI:

Aeródromo: La Florida (PUB) (SCSE)

Ubicación: La Serena , IV Región, Chile (29º 54' 59'' S, 71º 11' 58'' W) Ver ubicación en el mapa

Pistas

Orientación Dimensión Pendiente Superficie Resistencia APCH THR RWY PAPI
12/30 1938 x 45 0,70 ASPH PCN 46 F/A/X/T
Horas de operación HJ
Elevación 146 m / 481 ft
Otra Información Adm : D.G.A.C.
Uso : PUB
Ubicado a 6 km al E de La Serena
TEL (51) 2272652/2272662 FAX (51) 2272674
email : aro.serena@dgac.gob.cl

Cámara de Aeródromo www.dgac.gob.cl

Otra información ver AIP-Chile Volumen I AD 3.9-10.2-L y Ver VAC/RET

CCCM/FCCV Descargar
andera de Chile
Mapa de La Florida (PUB) (SCSE)

Último METAR

METAR SCSE 011300Z 12005KT CAVOK 12/07 Q1019

Último TAF

TAF SCSE 011000Z 0112/0212 07004KT 9999 BKN015 OVC020 TX14/0118Z TN08/0210Z BECMG 0113/0115 27010KT SCT014 BECMG 0118/0120 BKN020 BECMG 0201/0203 28004KT SCT020

Últimas fotos cámaras

Imagen aerodromo La Florida (PUB) (SCSE) N-Oeste tomada el 01-07-2022 01:42:31 Imagen aerodromo La Florida (PUB) (SCSE) Este tomada el 01-07-2022 01:37:48

Último NOTAM

C2961/22 NOTAMR C2627/22 Q)SCEZ/QMAXX/IV/NBO/A/000/999/2955S07112W005 A)SCSE B)2206291703 C)2208012359 D)MON/TUE/WED/FRI 0000-0120/1240-2359 THU/SAT BTN 0000-0300/1240-2359 SUN BTN 0000-0020/1240-2359 E)SUPERVISOR DE AREA DE MOV HR SER